Time;durP1;ratioP1;P1;durP2;ratioP2;P2;SDS_P1;SDS_P2;PMS_P1;PMS_P2;Temp;Humidity;BMP_temperature;BMP_pressure;BME280_temperature;BME280_humidity;BME280_pressure;Samples;Min_cycle;Max_cycle;Signal;HPM_P1;HPM_P2
2021/12/13 00:01:30;;;;;;;44.85;22.48;;;10.20;99.90;;;;;;2170739;65;20364;-80
2021/12/13 00:05:07;;;;;;;54.33;23.77;;;10.20;99.90;;;;;;2175384;65;20168;-79
2021/12/13 00:07:58;;;;;;;48.00;22.08;;;10.20;99.90;;;;;;2153676;66;20181;-79
2021/12/13 00:10:53;;;;;;;49.83;22.52;;;10.20;99.90;;;;;;2145915;66;20170;-80
2021/12/13 00:13:40;;;;;;;48.38;22.77;;;10.20;99.90;;;;;;2146245;66;20196;-79
2021/12/13 00:16:32;;;;;;;52.60;23.58;;;10.10;99.90;;;;;;2153660;66;20312;-82
2021/12/13 00:19:18;;;;;;;56.85;25.15;;;10.10;99.90;;;;;;2139368;66;20246;-80
2021/12/13 00:22:08;;;;;;;70.38;31.85;;;10.20;99.90;;;;;;2129735;67;20631;-79
2021/12/13 00:24:52;;;;;;;53.60;25.23;;;10.10;99.90;;;;;;2124905;67;20368;-79
2021/12/13 00:27:42;;;;;;;43.30;21.10;;;10.20;99.90;;;;;;2104890;67;20267;-80
2021/12/13 00:30:23;;;;;;;55.33;25.42;;;10.10;99.90;;;;;;2099430;68;20238;-80
2021/12/13 00:33:30;;;;;;;49.92;23.05;;;10.10;99.90;;;;;;2098117;68;21293;-79
2021/12/13 00:36:37;;;;;;;45.65;22.15;;;10.10;99.90;;;;;;2104500;68;20271;-80
2021/12/13 00:39:43;;;;;;;53.75;25.33;;;10.10;99.90;;;;;;2101917;67;20390;-80
2021/12/13 00:42:29;;;;;;;49.85;23.17;;;10.10;99.90;;;;;;2108254;67;20362;-79
2021/12/13 00:45:14;;;;;;;66.13;27.30;;;10.10;99.90;;;;;;2118080;67;20232;-79
2021/12/13 00:48:01;;;;;;;48.90;23.97;;;10.10;99.90;;;;;;2109764;67;20244;-79
2021/12/13 00:51:28;;;;;;;55.67;24.63;;;10.10;99.90;;;;;;2118391;67;20344;-79
2021/12/13 00:54:28;;;;;;;51.80;24.08;;;10.10;99.90;;;;;;2138978;66;20219;-79
2021/12/13 00:57:30;;;;;;;58.03;25.23;;;10.10;99.90;;;;;;2140112;67;20186;-80
2021/12/13 01:00:29;;;;;;;59.45;25.73;;;10.10;99.90;;;;;;2134296;67;20212;-81
2021/12/13 01:03:27;;;;;;;58.20;25.80;;;10.10;99.90;;;;;;2139730;66;20305;-79
2021/12/13 01:06:45;;;;;;;54.70;23.92;;;10.10;99.90;;;;;;2123695;67;20317;-81
2021/12/13 01:09:57;;;;;;;53.53;23.83;;;10.10;99.90;;;;;;2133968;66;20676;-80
2021/12/13 01:12:39;;;;;;;59.97;25.58;;;10.10;99.90;;;;;;2140454;66;20167;-80
2021/12/13 01:15:51;;;;;;;64.85;28.90;;;10.10;99.90;;;;;;2153027;66;20664;-78
2021/12/13 01:19:13;;;;;;;59.55;26.88;;;10.20;99.90;;;;;;2136978;67;20328;-79
2021/12/13 01:22:20;;;;;;;57.60;25.08;;;10.10;99.90;;;;;;2139809;66;20400;-80
2021/12/13 01:25:59;;;;;;;63.70;28.98;;;10.10;99.90;;;;;;2145581;66;20895;-80
2021/12/13 01:28:50;;;;;;;66.55;28.23;;;10.10;99.90;;;;;;2127648;67;20755;-79
2021/12/13 01:31:39;;;;;;;64.20;26.95;;;10.10;99.90;;;;;;2123231;67;20257;-82
2021/12/13 01:34:24;;;;;;;67.85;30.15;;;10.10;99.90;;;;;;2124884;67;20263;-79
2021/12/13 01:37:15;;;;;;;69.20;27.33;;;10.10;99.90;;;;;;2116884;67;20780;-78
2021/12/13 01:39:57;;;;;;;63.55;27.65;;;10.10;99.90;;;;;;2131873;67;20409;-80
2021/12/13 01:42:39;;;;;;;71.47;27.58;;;10.10;99.90;;;;;;2132579;67;20230;-80
2021/12/13 01:45:22;;;;;;;50.60;24.27;;;10.10;99.90;;;;;;2124280;67;20250;-80
2021/12/13 01:48:06;;;;;;;59.05;25.45;;;10.10;99.90;;;;;;2103944;68;20183;-80
2021/12/13 01:51:04;;;;;;;52.47;24.88;;;10.10;99.90;;;;;;2114938;67;20309;-79
2021/12/13 01:53:56;;;;;;;45.35;20.95;;;10.20;99.90;;;;;;2130920;67;20199;-80
2021/12/13 01:56:57;;;;;;;48.03;20.27;;;9.70;99.90;;;;;;2124921;67;20450;-79
2021/12/13 02:00:07;;;;;;;44.63;21.20;;;10.10;99.90;;;;;;2116931;67;20173;-77
2021/12/13 02:02:52;;;;;;;55.72;25.35;;;10.10;99.90;;;;;;2119278;67;20672;-78
2021/12/13 02:05:33;;;;;;;45.92;21.98;;;10.20;99.90;;;;;;2117616;67;20207;-80
2021/12/13 02:08:21;;;;;;;47.60;21.45;;;10.10;99.90;;;;;;2121057;67;20325;-78
2021/12/13 02:11:05;;;;;;;49.85;21.48;;;10.20;99.90;;;;;;2130180;66;20335;-79
2021/12/13 02:14:05;;;;;;;57.03;25.40;;;10.10;99.90;;;;;;2129283;67;20341;-78
2021/12/13 02:17:01;;;;;;;40.95;22.60;;;10.20;99.90;;;;;;2140026;66;20193;-79
2021/12/13 02:19:44;;;;;;;40.47;21.27;;;10.20;99.90;;;;;;2133305;66;20207;-78
2021/12/13 02:22:42;;;;;;;47.30;23.75;;;10.20;99.90;;;;;;2133984;67;20257;-81
2021/12/13 02:25:47;;;;;;;63.47;28.00;;;10.20;99.90;;;;;;2139677;67;20336;-79
2021/12/13 02:28:33;;;;;;;53.03;25.13;;;10.20;99.90;;;;;;2130566;67;20458;-80
2021/12/13 02:31:19;;;;;;;47.47;21.73;;;10.20;99.90;;;;;;2137316;67;20791;-80
2021/12/13 02:34:06;;;;;;;48.53;25.25;;;10.10;99.90;;;;;;2155265;66;20421;-79
2021/12/13 02:36:52;;;;;;;46.38;24.75;;;10.10;99.90;;;;;;2151929;66;20213;-79
2021/12/13 02:39:39;;;;;;;54.30;26.13;;;10.20;99.90;;;;;;2154697;66;20336;-79
2021/12/13 02:42:22;;;;;;;52.42;27.02;;;10.10;99.90;;;;;;2144467;66;20178;-79
2021/12/13 02:45:32;;;;;;;52.95;26.35;;;10.10;99.90;;;;;;2141610;66;20249;-81
2021/12/13 02:48:25;;;;;;;51.63;27.00;;;10.10;99.90;;;;;;2145345;66;20197;-79
2021/12/13 02:51:18;;;;;;;60.65;27.38;;;10.10;99.90;;;;;;2141378;66;20442;-80
2021/12/13 02:54:13;;;;;;;61.05;28.90;;;10.10;99.90;;;;;;2127707;67;20210;-79
2021/12/13 02:57:06;;;;;;;62.30;27.40;;;10.40;99.90;;;;;;2129032;67;20309;-79
2021/12/13 02:59:53;;;;;;;;;;;10.10;99.90;;;;;;2143811;66;20332;-79
2021/12/13 03:02:39;;;;;;;47.90;23.45;;;10.10;99.90;;;;;;2143342;66;20564;-80
2021/12/13 03:05:45;;;;;;;57.78;26.17;;;10.00;99.90;;;;;;2144829;66;20178;-78
2021/12/13 03:08:39;;;;;;;51.60;25.90;;;10.00;99.90;;;;;;2141104;66;20286;-78
2021/12/13 03:11:29;;;;;;;53.67;25.65;;;10.10;99.90;;;;;;2141165;66;20284;-80
2021/12/13 03:14:18;;;;;;;53.60;25.08;;;10.00;99.90;;;;;;2128367;67;20231;-79
2021/12/13 03:17:09;;;;;;;48.58;24.70;;;10.00;99.90;;;;;;2134810;67;20408;-80
2021/12/13 03:20:11;;;;;;;48.25;22.52;;;10.00;99.90;;;;;;2127698;67;20771;-80
2021/12/13 03:23:07;;;;;;;46.42;22.25;;;10.00;99.90;;;;;;2137121;67;20851;-79
2021/12/13 03:26:03;;;;;;;54.60;23.08;;;9.90;99.90;;;;;;2138115;67;20324;-80
2021/12/13 03:29:19;;;;;;;43.55;22.15;;;9.90;99.90;;;;;;2132236;67;20164;-80
2021/12/13 03:32:01;;;;;;;41.08;22.00;;;10.00;99.90;;;;;;2132434;67;20339;-79
2021/12/13 03:35:12;;;;;;;47.92;22.58;;;9.90;99.90;;;;;;2127537;67;20388;-79
2021/12/13 03:38:04;;;;;;;45.28;23.60;;;10.00;99.90;;;;;;2132354;67;20230;-80
2021/12/13 03:40:49;;;;;;;47.33;23.27;;;9.90;99.90;;;;;;2132720;67;20387;-79
2021/12/13 03:43:36;;;;;;;33.70;18.95;;;9.90;99.90;;;;;;2132035;67;20272;-80
2021/12/13 03:46:21;;;;;;;39.05;21.02;;;9.80;99.90;;;;;;2138036;66;20360;-82
2021/12/13 03:49:07;;;;;;;42.65;21.02;;;9.80;99.90;;;;;;2148329;66;20221;-79
2021/12/13 03:51:52;;;;;;;40.35;20.05;;;9.80;99.90;;;;;;2135178;67;20442;-79
2021/12/13 03:54:38;;;;;;;45.40;21.50;;;9.80;99.90;;;;;;2117583;67;20289;-81
2021/12/13 03:57:20;;;;;;;38.42;19.40;;;9.90;99.90;;;;;;2126177;67;20255;-81
2021/12/13 04:00:06;;;;;;;39.97;19.27;;;10.00;99.90;;;;;;2131362;67;20363;-81
2021/12/13 04:02:49;;;;;;;31.67;17.90;;;9.80;99.90;;;;;;2142925;66;20266;-82
2021/12/13 04:05:31;;;;;;;35.20;17.50;;;9.80;99.90;;;;;;2131373;67;20251;-82
2021/12/13 04:08:17;;;;;;;32.95;16.38;;;9.80;99.90;;;;;;2126977;67;20203;-81
2021/12/13 04:11:06;;;;;;;28.45;14.30;;;9.80;99.90;;;;;;2117178;67;20836;-81
2021/12/13 04:14:09;;;;;;;24.55;11.90;;;9.80;99.90;;;;;;2108764;67;20330;-81
2021/12/13 04:17:04;;;;;;;27.70;13.27;;;9.70;99.90;;;;;;2123481;67;20197;-80
2021/12/13 04:20:00;;;;;;;22.63;12.30;;;9.70;99.90;;;;;;2139675;66;20308;-80
2021/12/13 04:22:51;;;;;;;25.40;10.88;;;9.70;99.90;;;;;;2139676;66;20278;-81
2021/12/13 04:25:39;;;;;;;18.98;10.82;;;9.70;99.90;;;;;;2146027;66;20276;-80
2021/12/13 04:28:31;;;;;;;22.73;10.63;;;9.70;99.90;;;;;;2148370;66;20212;-81
2021/12/13 04:31:18;;;;;;;15.30;8.88;;;9.70;99.90;;;;;;2137663;67;20240;-81
2021/12/13 04:34:04;;;;;;;18.42;9.45;;;9.60;99.90;;;;;;2147171;66;20346;-80
2021/12/13 04:36:47;;;;;;;;;;;9.60;99.90;;;;;;2148563;66;20323;-80
2021/12/13 04:39:35;;;;;;;17.45;8.10;;;9.60;99.90;;;;;;2135260;67;20115;-79
2021/12/13 04:42:19;;;;;;;14.40;7.72;;;9.60;99.90;;;;;;2129045;67;20328;-81
2021/12/13 04:45:09;;;;;;;13.65;6.80;;;9.60;99.90;;;;;;2130532;67;20733;-79
2021/12/13 04:48:16;;;;;;;12.50;6.60;;;9.60;99.90;;;;;;2129913;67;20179;-80
2021/12/13 04:51:08;;;;;;;;;;;9.60;99.90;;;;;;2128479;67;20168;-80
2021/12/13 04:53:50;;;;;;;13.20;6.07;;;9.60;99.90;;;;;;2122698;67;20230;-82
2021/12/13 04:56:34;;;;;;;8.05;5.25;;;9.50;99.90;;;;;;2145085;66;20298;-81
2021/12/13 04:59:19;;;;;;;10.77;5.85;;;9.60;99.90;;;;;;2145746;66;21214;-80
2021/12/13 05:02:07;;;;;;;8.82;4.75;;;9.60;99.90;;;;;;2154871;66;20203;-81
2021/12/13 05:04:57;;;;;;;10.43;4.95;;;9.50;99.90;;;;;;2146471;66;20346;-81
2021/12/13 05:07:43;;;;;;;9.65;4.28;;;9.50;99.90;;;;;;2132527;66;20255;-81
2021/12/13 05:10:25;;;;;;;11.60;5.20;;;9.50;99.90;;;;;;2135901;66;20244;-80
2021/12/13 05:13:13;;;;;;;10.05;4.28;;;9.50;99.90;;;;;;2145297;66;20378;-80
2021/12/13 05:16:15;;;;;;;6.95;4.40;;;9.50;99.90;;;;;;2153689;66;20177;-80
2021/12/13 05:18:59;;;;;;;9.30;4.82;;;10.10;99.90;;;;;;2151223;66;20351;-81
2021/12/13 05:21:50;;;;;;;8.73;5.20;;;9.50;99.90;;;;;;2160547;65;20329;-81
2021/12/13 05:24:41;;;;;;;7.20;5.05;;;9.50;99.90;;;;;;2163641;66;20236;-80
2021/12/13 05:27:36;;;;;;;8.88;5.00;;;9.50;99.90;;;;;;2161264;66;20169;-80
2021/12/13 05:30:23;;;;;;;6.85;5.25;;;9.50;99.90;;;;;;2156970;66;20236;-81
2021/12/13 05:33:07;;;;;;;10.23;5.03;;;9.50;99.90;;;;;;2143794;66;20554;-77
2021/12/13 05:35:53;;;;;;;7.70;4.88;;;9.40;99.90;;;;;;2147423;66;20319;-81
2021/12/13 05:39:06;;;;;;;5.78;4.60;;;9.90;99.90;;;;;;2148952;66;20169;-82
2021/12/13 05:41:57;;;;;;;8.15;4.68;;;9.40;99.90;;;;;;2139340;67;20672;-80
2021/12/13 05:44:45;;;;;;;8.90;5.18;;;9.40;99.90;;;;;;2139686;67;20205;-80
2021/12/13 05:47:31;;;;;;;8.50;5.20;;;9.40;99.90;;;;;;2122239;67;20264;-81
2021/12/13 05:50:32;;;;;;;7.75;5.00;;;9.40;99.90;;;;;;2130979;66;20230;-81
2021/12/13 05:53:38;;;;;;;13.20;5.07;;;9.40;99.90;;;;;;2139410;66;20191;-80
2021/12/13 05:56:20;;;;;;;6.68;4.75;;;9.40;99.90;;;;;;2127105;67;20176;-80
2021/12/13 05:59:21;;;;;;;11.10;5.50;;;9.40;99.90;;;;;;2149781;66;20276;-79
2021/12/13 06:02:11;;;;;;;10.02;5.20;;;9.40;99.90;;;;;;2135815;67;20195;-80
2021/12/13 06:04:57;;;;;;;7.10;5.60;;;9.40;99.90;;;;;;2136355;67;20253;-80
2021/12/13 06:07:40;;;;;;;;;;;9.40;99.90;;;;;;2130985;67;20436;-79
2021/12/13 06:10:26;;;;;;;10.40;5.95;;;9.40;99.90;;;;;;2146257;66;20101;-80
2021/12/13 06:13:14;;;;;;;9.27;6.00;;;9.50;99.90;;;;;;2144247;66;20165;-81
2021/12/13 06:15:57;;;;;;;12.68;5.93;;;9.40;99.90;;;;;;2148140;66;20273;-81
2021/12/13 06:19:00;;;;;;;12.50;6.38;;;9.50;99.90;;;;;;2155068;66;20177;-79
2021/12/13 06:21:51;;;;;;;8.68;6.93;;;9.50;99.90;;;;;;2139876;66;20309;-79
2021/12/13 06:24:43;;;;;;;12.95;6.53;;;9.50;99.90;;;;;;2143913;66;20358;-80
2021/12/13 06:27:28;;;;;;;10.57;6.75;;;9.50;99.90;;;;;;2157882;66;20189;-80
2021/12/13 06:30:11;;;;;;;12.00;7.40;;;9.50;99.90;;;;;;2148922;66;20203;-79
2021/12/13 06:33:02;;;;;;;12.55;7.28;;;9.40;99.90;;;;;;2142343;66;20590;-80
2021/12/13 06:35:53;;;;;;;10.50;6.72;;;9.40;99.90;;;;;;2139936;66;20408;-80
2021/12/13 06:39:13;;;;;;;9.00;6.88;;;9.40;99.90;;;;;;2118866;67;20310;-81
2021/12/13 06:42:02;;;;;;;10.52;6.68;;;9.40;99.90;;;;;;2105473;67;20169;-81
2021/12/13 06:44:47;;;;;;;12.13;6.72;;;9.40;99.90;;;;;;2095238;68;20862;-80
2021/12/13 06:47:31;;;;;;;15.65;7.93;;;9.40;99.90;;;;;;2091113;68;20227;-81
2021/12/13 06:50:23;;;;;;;14.25;7.40;;;9.40;99.90;;;;;;2098263;68;20258;-83
2021/12/13 06:53:32;;;;;;;11.82;6.80;;;9.50;99.90;;;;;;2107889;67;20869;-81
2021/12/13 06:56:33;;;;;;;12.70;6.75;;;9.40;99.90;;;;;;2105304;68;20811;-83
2021/12/13 06:59:18;;;;;;;12.05;7.40;;;9.40;99.90;;;;;;2115846;67;20310;-83
2021/12/13 07:02:30;;;;;;;15.48;7.30;;;9.40;99.90;;;;;;2132604;67;20686;-79
2021/12/13 07:05:16;;;;;;;8.85;6.47;;;9.50;99.90;;;;;;2145351;66;20832;-81
2021/12/13 07:08:08;;;;;;;10.13;6.22;;;9.40;99.90;;;;;;2150087;66;20273;-80
2021/12/13 07:10:52;;;;;;;11.18;6.80;;;9.40;99.90;;;;;;2153020;66;20197;-81
2021/12/13 07:13:36;;;;;;;9.77;6.85;;;9.40;99.90;;;;;;2145994;66;20909;-80
2021/12/13 07:16:29;;;;;;;11.10;6.65;;;9.40;99.90;;;;;;2136313;66;20265;-78
2021/12/13 07:19:23;;;;;;;13.30;7.43;;;9.40;99.90;;;;;;2119985;67;20177;-80
2021/12/13 07:22:09;;;;;;;11.20;6.68;;;9.40;99.90;;;;;;2133921;66;20270;-82
2021/12/13 07:25:23;;;;;;;10.77;8.02;;;9.40;99.90;;;;;;2140272;66;20288;-81
2021/12/13 07:28:07;;;;;;;11.77;7.22;;;9.40;99.90;;;;;;2139415;66;20191;-81
2021/12/13 07:30:51;;;;;;;14.00;7.30;;;9.40;99.90;;;;;;2126912;67;20306;-82
2021/12/13 07:33:43;;;;;;;16.83;8.55;;;9.40;99.90;;;;;;2118643;67;20921;-81
2021/12/13 07:36:26;;;;;;;11.48;7.55;;;9.40;99.90;;;;;;2116774;67;20726;-83
2021/12/13 07:39:15;;;;;;;21.60;8.50;;;9.40;99.90;;;;;;2121182;67;20721;-81
2021/12/13 07:42:04;;;;;;;13.77;8.55;;;9.40;99.90;;;;;;2114296;67;20794;-78
2021/12/13 07:44:47;;;;;;;14.75;8.60;;;9.50;99.90;;;;;;2096765;68;20309;-77
2021/12/13 07:47:34;;;;;;;12.00;7.82;;;9.30;99.90;;;;;;2102729;67;20186;-80
2021/12/13 07:50:21;;;;;;;12.63;8.80;;;9.40;99.90;;;;;;2117346;67;20247;-81
2021/12/13 07:53:08;;;;;;;13.75;9.35;;;9.40;99.90;;;;;;2118215;67;20356;-80
2021/12/13 07:55:49;;;;;;;14.73;9.52;;;9.40;99.90;;;;;;2113578;67;20243;-74
2021/12/13 07:58:36;;;;;;;14.23;9.10;;;9.40;99.90;;;;;;2121130;67;20253;-76
2021/12/13 08:01:17;;;;;;;14.60;10.77;;;9.40;99.90;;;;;;2105429;67;20189;-77
2021/12/13 08:04:08;;;;;;;15.38;9.48;;;9.40;99.90;;;;;;2110002;67;20362;-78
2021/12/13 08:06:54;;;;;;;17.80;9.88;;;9.40;99.90;;;;;;2111934;67;20323;-74
2021/12/13 08:09:51;;;;;;;19.70;11.98;;;9.40;99.90;;;;;;2117511;67;20231;-78
2021/12/13 08:12:41;;;;;;;13.20;10.77;;;9.40;99.90;;;;;;2120412;67;20329;-76
2021/12/13 08:15:49;;;;;;;16.58;10.88;;;9.40;99.90;;;;;;2128927;67;20655;-81
2021/12/13 08:18:36;;;;;;;14.32;10.57;;;9.40;99.90;;;;;;2116838;67;20300;-75
2021/12/13 08:21:28;;;;;;;15.90;10.77;;;9.50;99.90;;;;;;2125799;67;20175;-83
2021/12/13 08:24:20;;;;;;;18.27;11.40;;;9.50;99.90;;;;;;2128090;67;20659;-86
2021/12/13 08:27:44;;;;;;;16.10;12.43;;;9.50;99.90;;;;;;2112438;67;20224;-79
2021/12/13 08:30:30;;;;;;;16.40;11.25;;;9.50;99.90;;;;;;2118409;67;20989;-77
2021/12/13 08:33:14;;;;;;;;;;;9.50;99.90;;;;;;2123714;67;20747;-81
2021/12/13 08:36:02;;;;;;;19.60;13.60;;;9.50;99.90;;;;;;2123090;67;20056;-74
2021/12/13 08:38:50;;;;;;;16.50;11.10;;;9.50;99.90;;;;;;2117682;67;20425;-75
2021/12/13 08:41:37;;;;;;;16.10;12.75;;;9.50;99.90;;;;;;2120692;67;20228;-75
2021/12/13 08:44:25;;;;;;;18.08;12.80;;;9.70;99.90;;;;;;2115833;67;20342;-75
2021/12/13 08:47:35;;;;;;;18.40;12.95;;;9.60;99.90;;;;;;2128205;67;20254;-75
2021/12/13 08:50:44;;;;;;;18.55;13.52;;;9.60;99.90;;;;;;2127191;67;20333;-77
2021/12/13 08:53:35;;;;;;;18.60;13.65;;;9.60;99.90;;;;;;2119247;67;20411;-74
2021/12/13 08:56:23;;;;;;;19.65;12.73;;;9.60;99.90;;;;;;2103682;67;20238;-78
2021/12/13 08:59:24;;;;;;;16.08;13.02;;;9.60;99.90;;;;;;2108224;67;20753;-77
2021/12/13 09:02:11;;;;;;;20.00;12.70;;;9.70;99.90;;;;;;2109470;67;20272;-79
2021/12/13 09:05:15;;;;;;;17.65;13.15;;;9.70;99.90;;;;;;2124056;67;20797;-76
2021/12/13 09:08:07;;;;;;;20.33;13.40;;;9.70;99.90;;;;;;2118780;67;20224;-76
2021/12/13 09:11:08;;;;;;;18.23;13.23;;;9.80;99.90;;;;;;2119073;67;20197;-76
2021/12/13 09:13:50;;;;;;;15.68;12.80;;;9.80;99.90;;;;;;2131622;67;20324;-77
2021/12/13 09:17:10;;;;;;;18.23;12.98;;;9.80;99.90;;;;;;2129172;67;20199;-76
2021/12/13 09:19:53;;;;;;;20.45;14.13;;;9.80;99.90;;;;;;2139828;66;20167;-75
2021/12/13 09:22:41;;;;;;;18.52;13.20;;;9.90;99.90;;;;;;2136748;66;20304;-77
2021/12/13 09:25:40;;;;;;;17.77;12.88;;;9.90;99.90;;;;;;2146896;66;20166;-76
2021/12/13 09:28:31;;;;;;;23.65;14.35;;;9.90;99.90;;;;;;2141225;66;20789;-76
2021/12/13 09:31:32;;;;;;;18.25;12.52;;;9.90;99.90;;;;;;2144542;66;20178;-79
2021/12/13 09:34:20;;;;;;;18.75;14.10;;;9.90;99.90;;;;;;2140792;66;20229;-77
2021/12/13 09:37:08;;;;;;;17.08;12.48;;;9.90;99.90;;;;;;2100987;67;20270;-75
2021/12/13 09:40:04;;;;;;;20.85;12.52;;;9.90;99.90;;;;;;2122024;67;20223;-71
2021/12/13 09:43:09;;;;;;;17.95;12.68;;;9.90;99.90;;;;;;2133499;67;20250;-74
2021/12/13 09:45:55;;;;;;;18.52;13.10;;;10.00;99.90;;;;;;2137018;66;20194;-76
2021/12/13 09:48:44;;;;;;;16.55;12.18;;;9.90;99.90;;;;;;2132938;67;20405;-77
2021/12/13 09:51:52;;;;;;;15.00;12.25;;;10.00;99.90;;;;;;2121643;67;20257;-77
2021/12/13 09:54:38;;;;;;;20.63;13.00;;;10.00;99.90;;;;;;2130809;67;20202;-77
2021/12/13 09:57:51;;;;;;;16.55;11.95;;;10.00;99.90;;;;;;2135854;67;20351;-75
2021/12/13 10:00:43;;;;;;;17.15;12.75;;;10.00;99.90;;;;;;2140504;66;20259;-76
2021/12/13 10:03:39;;;;;;;20.48;12.75;;;10.00;99.90;;;;;;2145351;66;20322;-78
2021/12/13 10:06:31;;;;;;;16.42;10.57;;;10.10;99.90;;;;;;2144216;66;20700;-73
2021/12/13 10:09:29;;;;;;;13.85;11.52;;;10.10;99.90;;;;;;2144077;66;20425;-75
2021/12/13 10:12:22;;;;;;;16.38;11.73;;;10.10;99.90;;;;;;2148243;66;20244;-73
2021/12/13 10:15:27;;;;;;;15.93;11.68;;;10.10;99.90;;;;;;2149604;66;20353;-74
2021/12/13 10:18:15;;;;;;;14.50;11.25;;;10.10;99.90;;;;;;2142570;66;20751;-74
2021/12/13 10:21:17;;;;;;;13.35;10.38;;;10.10;99.90;;;;;;2132709;67;20333;-76
2021/12/13 10:24:10;;;;;;;18.33;11.15;;;10.00;99.90;;;;;;2120197;67;20333;-75
2021/12/13 10:26:59;;;;;;;17.80;11.07;;;10.00;99.90;;;;;;2125482;67;20202;-80
2021/12/13 10:29:47;;;;;;;15.82;11.23;;;10.00;99.90;;;;;;2141444;66;20230;-76
2021/12/13 10:32:34;;;;;;;19.63;11.18;;;10.00;99.90;;;;;;2139784;67;20352;-79
2021/12/13 10:35:29;;;;;;;14.18;11.05;;;10.10;99.90;;;;;;2108351;67;20267;-82
2021/12/13 10:38:34;;;;;;;15.23;11.43;;;10.10;99.90;;;;;;2130955;67;20170;-80
2021/12/13 10:41:38;;;;;;;15.65;10.93;;;10.20;99.90;;;;;;2140136;66;20354;-78
2021/12/13 10:44:27;;;;;;;14.65;10.90;;;10.30;99.90;;;;;;2117659;67;20350;-76
2021/12/13 10:47:20;;;;;;;15.35;10.23;;;10.30;99.90;;;;;;2131296;67;20324;-76
2021/12/13 10:50:12;;;;;;;14.02;10.73;;;10.30;99.90;;;;;;2131039;67;20353;-74
2021/12/13 10:52:58;;;;;;;20.73;11.10;;;10.40;99.90;;;;;;2140392;66;20745;-75
2021/12/13 10:56:08;;;;;;;16.92;11.40;;;10.40;99.90;;;;;;2115829;67;20312;-75
2021/12/13 10:58:53;;;;;;;13.52;10.40;;;10.40;99.90;;;;;;2110501;67;20297;-74
2021/12/13 11:01:42;;;;;;;14.57;11.25;;;10.40;99.90;;;;;;2112140;67;20230;-74
2021/12/13 11:04:36;;;;;;;17.25;11.07;;;10.40;99.90;;;;;;2097748;68;20404;-76
2021/12/13 11:07:21;;;;;;;15.73;11.35;;;10.30;99.90;;;;;;2101832;67;20323;-75
2021/12/13 11:10:09;;;;;;;15.07;10.18;;;10.30;99.90;;;;;;2114858;67;20237;-76
2021/12/13 11:12:55;;;;;;;17.55;11.52;;;10.40;99.90;;;;;;2118365;67;20180;-76
2021/12/13 11:15:40;;;;;;;14.70;10.70;;;10.30;99.90;;;;;;2115256;67;20493;-77
2021/12/13 11:18:28;;;;;;;15.82;11.23;;;10.40;99.90;;;;;;2131085;67;20167;-75
2021/12/13 11:21:15;;;;;;;16.45;11.05;;;10.40;99.90;;;;;;2144155;66;20231;-75
2021/12/13 11:23:59;;;;;;;15.35;10.05;;;10.40;99.90;;;;;;2141600;66;20826;-77
2021/12/13 11:26:47;;;;;;;15.30;11.27;;;10.40;99.90;;;;;;2138331;66;20204;-76
2021/12/13 11:29:29;;;;;;;15.52;10.90;;;10.40;99.90;;;;;;2148308;66;20206;-75
2021/12/13 11:32:31;;;;;;;19.10;11.93;;;10.40;99.90;;;;;;2144861;66;20243;-77
2021/12/13 11:35:30;;;;;;;13.45;11.13;;;10.50;99.90;;;;;;2146694;66;20220;-78
2021/12/13 11:38:47;;;;;;;12.85;10.63;;;10.50;99.90;;;;;;2141012;66;20194;-78
2021/12/13 11:41:43;;;;;;;14.00;10.68;;;10.50;99.90;;;;;;2122371;67;20959;-76
2021/12/13 11:45:10;;;;;;;14.55;10.50;;;10.50;99.90;;;;;;2124074;67;20253;-75
2021/12/13 11:48:10;;;;;;;;;;;10.50;99.90;;;;;;2131228;67;20167;-74
2021/12/13 11:51:12;;;;;;;14.73;10.18;;;10.50;99.90;;;;;;2117103;67;20056;-76
2021/12/13 11:54:31;;;;;;;15.82;11.95;;;10.50;99.90;;;;;;2131357;67;21236;-77
2021/12/13 11:57:49;;;;;;;15.63;11.25;;;10.60;99.90;;;;;;2131333;67;20183;-78
2021/12/13 12:01:03;;;;;;;15.13;10.85;;;10.60;99.90;;;;;;2146363;66;20287;-77
2021/12/13 12:04:25;;;;;;;15.25;10.32;;;10.70;99.90;;;;;;2153139;66;20222;-81
2021/12/13 12:07:33;;;;;;;16.55;10.38;;;10.80;99.90;;;;;;2160283;66;20198;-83
2021/12/13 12:10:38;;;;;;;16.38;10.30;;;10.80;99.90;;;;;;2162115;66;20713;-74
2021/12/13 12:14:04;;;;;;;15.90;11.35;;;10.80;99.90;;;;;;2147669;66;20194;-75
2021/12/13 12:16:48;;;;;;;15.40;10.80;;;10.80;99.90;;;;;;2153855;66;20250;-76
2021/12/13 12:19:40;;;;;;;15.35;10.85;;;10.80;99.90;;;;;;2142562;66;20837;-75
2021/12/13 12:22:22;;;;;;;16.83;10.23;;;10.70;99.90;;;;;;2146583;66;20705;-74
2021/12/13 12:25:07;;;;;;;14.93;10.73;;;10.70;99.90;;;;;;2142159;66;20336;-74
2021/12/13 12:27:55;;;;;;;15.60;11.48;;;10.70;99.90;;;;;;2116285;67;20375;-74
2021/12/13 12:30:48;;;;;;;18.73;12.80;;;10.60;99.90;;;;;;2118876;67;20498;-72
2021/12/13 12:33:37;;;;;;;21.15;13.75;;;10.50;99.90;;;;;;2132980;67;20349;-74
2021/12/13 12:36:46;;;;;;;20.63;13.77;;;10.40;99.90;;;;;;2139063;66;20407;-74
2021/12/13 12:40:05;;;;;;;21.90;12.63;;;10.30;99.90;;;;;;2131528;67;20222;-75
2021/12/13 12:42:50;;;;;;;20.40;14.90;;;10.20;99.90;;;;;;2124007;67;20368;-74
2021/12/13 12:45:54;;;;;;;25.48;15.55;;;10.10;99.90;;;;;;2117670;67;20576;-75
2021/12/13 12:48:43;;;;;;;21.38;13.60;;;10.10;99.90;;;;;;2125082;67;20717;-74
2021/12/13 12:51:27;;;;;;;21.05;13.32;;;10.00;99.90;;;;;;2129491;67;20352;-77
2021/12/13 12:54:15;;;;;;;19.35;11.23;;;10.00;99.90;;;;;;2141999;66;20231;-76
2021/12/13 12:56:59;;;;;;;27.77;13.35;;;10.00;99.90;;;;;;2147165;66;20194;-75
2021/12/13 12:59:43;;;;;;;14.77;11.23;;;9.90;99.90;;;;;;2126729;67;20338;-75
2021/12/13 13:02:32;;;;;;;17.25;12.65;;;9.90;99.90;;;;;;2123729;67;20328;-75
2021/12/13 13:05:15;;;;;;;18.98;13.88;;;9.90;99.90;;;;;;2118168;67;20265;-74
2021/12/13 13:08:00;;;;;;;19.38;13.38;;;9.90;99.90;;;;;;2114974;67;20265;-75
2021/12/13 13:13:25;;;;;;;20.27;14.18;;;10.00;99.90;;;;;;2130959;67;20366;-75
2021/12/13 13:16:08;;;;;;;27.92;15.05;;;9.90;99.90;;;;;;2140671;66;20363;-76
2021/12/13 13:18:55;;;;;;;23.35;13.95;;;10.00;99.90;;;;;;2133320;67;20175;-74
2021/12/13 13:21:49;;;;;;;18.73;13.52;;;10.00;99.90;;;;;;2134977;66;20231;-77
2021/12/13 13:24:38;;;;;;;20.35;14.32;;;10.10;99.90;;;;;;2140325;66;20180;-81
2021/12/13 13:27:23;;;;;;;19.15;13.18;;;10.20;99.90;;;;;;2143004;66;20253;-74
2021/12/13 13:30:36;;;;;;;17.83;12.75;;;10.20;99.90;;;;;;2148069;66;20249;-85
2021/12/13 13:33:34;;;;;;;21.17;13.98;;;10.40;99.90;;;;;;2135573;66;20168;-75
2021/12/13 13:36:42;;;;;;;19.63;13.32;;;10.60;99.90;;;;;;2130559;67;20358;-83
2021/12/13 13:39:41;;;;;;;17.45;13.05;;;10.60;99.90;;;;;;2131371;67;20337;-85
2021/12/13 13:42:34;;;;;;;16.90;10.80;;;10.60;99.90;;;;;;2117885;67;20187;-82
2021/12/13 13:45:22;;;;;;;18.85;12.75;;;10.70;99.90;;;;;;2124267;67;20440;-83
2021/12/13 13:48:08;;;;;;;;;;;10.90;99.90;;;;;;2123950;67;20372;-82
2021/12/13 13:50:55;;;;;;;13.80;10.18;;;10.90;99.90;;;;;;2120398;67;20517;-76
2021/12/13 13:54:05;;;;;;;13.40;10.40;;;11.00;99.90;;;;;;2120217;67;20201;-80
2021/12/13 13:56:49;;;;;;;14.98;9.82;;;11.00;99.90;;;;;;2135783;67;20195;-81
2021/12/13 13:59:37;;;;;;;14.05;9.38;;;11.00;99.90;;;;;;2133748;67;20356;-78
2021/12/13 14:02:24;;;;;;;13.50;9.18;;;11.00;99.90;;;;;;2125174;67;20352;-77
2021/12/13 14:05:10;;;;;;;16.63;9.05;;;11.10;99.90;;;;;;2133974;66;20333;-81
2021/12/13 14:07:55;;;;;;;15.52;9.75;;;11.10;99.90;;;;;;2138935;66;20312;-77
2021/12/13 14:10:40;;;;;;;13.07;9.43;;;11.00;99.90;;;;;;2138030;66;20342;-79
2021/12/13 14:13:23;;;;;;;16.50;10.05;;;10.90;99.90;;;;;;2153250;66;20842;-80
2021/12/13 14:16:28;;;;;;;14.45;9.90;;;10.90;99.90;;;;;;2155792;66;20261;-80
2021/12/13 14:19:25;;;;;;;15.88;11.32;;;10.80;99.90;;;;;;2146206;66;20700;-80
2021/12/13 14:22:08;;;;;;;18.70;10.50;;;10.70;99.90;;;;;;2132103;67;20734;-78
2021/12/13 14:24:50;;;;;;;16.23;11.57;;;10.70;99.90;;;;;;2131939;67;20635;-81
2021/12/13 14:27:35;;;;;;;13.43;9.80;;;10.60;99.90;;;;;;2139898;66;20263;-80
2021/12/13 14:30:28;;;;;;;19.23;11.00;;;10.60;99.90;;;;;;2139897;66;20174;-77
2021/12/13 14:33:24;;;;;;;17.25;10.57;;;10.50;99.90;;;;;;2137836;67;20353;-81
2021/12/13 14:36:14;;;;;;;17.27;10.70;;;10.60;99.90;;;;;;2134066;66;20325;-78
2021/12/13 14:39:06;;;;;;;12.93;10.18;;;10.50;99.90;;;;;;2135995;66;20253;-75
2021/12/13 14:42:00;;;;;;;15.13;10.07;;;10.50;99.90;;;;;;2151429;66;20261;-77
2021/12/13 14:44:52;;;;;;;16.27;10.20;;;10.40;99.90;;;;;;2141649;66;20293;-75
2021/12/13 14:47:46;;;;;;;15.27;10.20;;;10.40;99.90;;;;;;2149504;66;20190;-78
2021/12/13 14:50:32;;;;;;;17.02;10.70;;;10.40;99.90;;;;;;2147419;66;20193;-81